createdAt,value
2022-08-17T00:00:16.590Z,9.95
2022-08-17T00:03:17.340Z,10.50
2022-08-17T00:05:44.529Z,10.02
2022-08-17T00:08:12.402Z,10.80
2022-08-17T00:10:40.134Z,9.75
2022-08-17T00:13:09.059Z,10.73
2022-08-17T00:15:36.491Z,10.77
2022-08-17T00:18:03.934Z,10.77
2022-08-17T00:20:51.927Z,11.27
2022-08-17T00:23:19.235Z,10.80
2022-08-17T00:25:47.271Z,10.68
2022-08-17T00:28:16.211Z,11.18
2022-08-17T00:30:52.806Z,11.18
2022-08-17T00:33:23.781Z,11.15
2022-08-17T00:35:51.633Z,11.52
2022-08-17T00:38:18.767Z,11.85
2022-08-17T00:40:48.241Z,11.25
2022-08-17T00:43:35.177Z,11.02
2022-08-17T00:46:09.828Z,12.07
2022-08-17T00:48:37.675Z,11.30
2022-08-17T00:51:19.263Z,11.82
2022-08-17T00:53:50.725Z,11.90
2022-08-17T00:56:22.780Z,12.38
2022-08-17T00:58:50.320Z,13.20
2022-08-17T01:01:21.439Z,13.27
2022-08-17T01:03:50.368Z,12.60
2022-08-17T01:06:17.528Z,13.18
2022-08-17T01:08:44.841Z,13.63
2022-08-17T01:11:12.162Z,13.13
2022-08-17T01:13:43.051Z,12.57
2022-08-17T01:16:30.389Z,13.27
2022-08-17T01:19:02.231Z,12.38
2022-08-17T01:21:42.121Z,14.05
2022-08-17T01:24:09.636Z,12.27
2022-08-17T01:26:37.252Z,13.07
2022-08-17T01:29:05.269Z,11.93
2022-08-17T01:31:36.052Z,12.77
2022-08-17T01:34:05.810Z,12.65
2022-08-17T01:36:34.277Z,12.65
2022-08-17T01:39:01.474Z,11.70
2022-08-17T01:41:28.789Z,12.88
2022-08-17T01:44:02.384Z,12.15
2022-08-17T01:46:32.196Z,11.95
2022-08-17T01:48:59.624Z,11.35
2022-08-17T01:51:29.696Z,11.50
2022-08-17T01:53:57.678Z,11.70
2022-08-17T01:56:25.030Z,12.13
2022-08-17T01:58:52.722Z,12.23
2022-08-17T02:01:22.111Z,11.68
2022-08-17T02:03:56.224Z,11.85
2022-08-17T02:06:31.465Z,12.30
2022-08-17T02:09:16.711Z,12.13
2022-08-17T02:11:44.669Z,11.77
2022-08-17T02:14:13.482Z,11.93
2022-08-17T02:16:41.143Z,11.80
2022-08-17T02:19:12.341Z,11.90
2022-08-17T02:21:39.818Z,11.88
2022-08-17T02:24:12.366Z,11.93
2022-08-17T02:26:39.663Z,12.13
2022-08-17T02:29:07.417Z,11.75
2022-08-17T02:31:35.670Z,12.60
2022-08-17T02:34:05.155Z,12.43
2022-08-17T02:36:33.483Z,12.38
2022-08-17T02:39:05.121Z,12.95
2022-08-17T02:41:32.261Z,12.35
2022-08-17T02:43:59.371Z,13.10
2022-08-17T02:46:26.776Z,12.80
2022-08-17T02:48:53.877Z,11.65
2022-08-17T02:51:20.941Z,12.52
2022-08-17T02:53:48.342Z,13.10
2022-08-17T02:56:15.404Z,12.68
2022-08-17T02:58:42.577Z,13.45
2022-08-17T03:01:10.313Z,12.32
2022-08-17T03:03:37.669Z,13.35
2022-08-17T03:06:04.975Z,13.43
2022-08-17T03:08:32.273Z,13.45
2022-08-17T03:10:59.815Z,13.50
2022-08-17T03:13:27.619Z,12.88
2022-08-17T03:15:54.832Z,13.20
2022-08-17T03:18:25.671Z,13.00
2022-08-17T03:20:54.923Z,13.02
2022-08-17T03:23:23.949Z,12.25
2022-08-17T03:25:53.430Z,12.27
2022-08-17T03:28:21.243Z,13.15
2022-08-17T03:30:48.433Z,13.10
2022-08-17T03:33:16.355Z,12.43
2022-08-17T03:35:43.745Z,12.45
2022-08-17T03:38:11.602Z,12.57
2022-08-17T03:40:58.155Z,11.02
2022-08-17T03:43:30.463Z,12.60
2022-08-17T03:46:28.615Z,13.57
2022-08-17T03:49:21.967Z,13.43
2022-08-17T03:52:07.314Z,12.95
2022-08-17T03:54:53.463Z,12.85
2022-08-17T03:57:20.557Z,12.73
2022-08-17T03:59:47.912Z,11.73
2022-08-17T04:02:21.843Z,12.70
2022-08-17T04:04:52.564Z,12.27
2022-08-17T04:07:21.034Z,12.23
2022-08-17T04:09:48.410Z,11.65
2022-08-17T04:12:19.385Z,10.55
2022-08-17T04:14:53.540Z,11.00
2022-08-17T04:17:23.521Z,11.13
2022-08-17T04:19:50.768Z,10.10
2022-08-17T04:22:30.997Z,10.20
2022-08-17T04:25:03.937Z,10.32
2022-08-17T04:27:31.012Z,10.18
2022-08-17T04:29:58.759Z,9.93
2022-08-17T04:33:05.012Z,10.05
2022-08-17T04:35:17.497Z,10.73
2022-08-17T04:37:45.654Z,10.23
2022-08-17T04:40:31.076Z,10.73
2022-08-17T04:43:13.037Z,10.93
2022-08-17T04:45:51.240Z,11.25
2022-08-17T04:48:23.668Z,11.13
2022-08-17T04:51:00.632Z,10.65
2022-08-17T04:53:27.985Z,9.95
2022-08-17T04:55:58.355Z,10.60
2022-08-17T04:58:26.022Z,10.90
2022-08-17T05:00:53.431Z,11.02
2022-08-17T05:03:20.517Z,10.68
2022-08-17T05:05:49.839Z,10.73
2022-08-17T05:08:18.890Z,11.07
2022-08-17T05:10:46.223Z,11.35
2022-08-17T05:13:22.795Z,11.75
2022-08-17T05:15:52.343Z,13.05
2022-08-17T05:18:19.450Z,12.43
2022-08-17T05:20:46.903Z,13.70
2022-08-17T05:23:15.631Z,14.27
2022-08-17T05:25:47.900Z,13.23
2022-08-17T05:28:18.679Z,13.27
2022-08-17T05:30:50.849Z,13.35
2022-08-17T05:33:29.639Z,13.00
2022-08-17T05:35:58.438Z,12.52
2022-08-17T05:38:26.962Z,13.20
2022-08-17T05:40:56.256Z,12.32
2022-08-17T05:43:34.565Z,12.77
2022-08-17T05:46:28.451Z,13.88
2022-08-17T05:49:01.864Z,13.07
2022-08-17T05:51:47.821Z,13.25
2022-08-17T05:54:21.518Z,13.50
2022-08-17T05:57:13.946Z,13.20
2022-08-17T06:00:02.629Z,13.50
2022-08-17T06:03:13.321Z,13.00
2022-08-17T06:05:56.107Z,15.55
2022-08-17T06:08:51.678Z,14.57
2022-08-17T06:12:00.339Z,14.55
2022-08-17T06:14:33.164Z,15.65
2022-08-17T06:17:07.114Z,16.00
2022-08-17T06:19:41.104Z,15.35
2022-08-17T06:22:08.981Z,14.90
2022-08-17T06:24:54.704Z,14.38
2022-08-17T06:27:27.043Z,14.55
2022-08-17T06:30:02.433Z,18.27
2022-08-17T06:32:29.773Z,16.20
2022-08-17T06:34:57.726Z,16.00
2022-08-17T06:37:34.471Z,16.98
2022-08-17T06:40:16.821Z,17.85
2022-08-17T06:42:54.791Z,21.65
2022-08-17T06:48:28.113Z,23.15
2022-08-17T06:51:18.578Z,24.38
2022-08-17T06:53:59.911Z,24.55
2022-08-17T06:56:52.674Z,25.73
2022-08-17T06:59:30.487Z,27.40
2022-08-17T07:02:52.742Z,26.27
2022-08-17T07:05:22.703Z,25.73
2022-08-17T07:08:30.580Z,27.80
2022-08-17T07:13:57.524Z,27.42
2022-08-17T07:16:27.617Z,27.65
2022-08-17T07:21:55.857Z,26.63
2022-08-17T07:24:49.509Z,25.23
2022-08-17T07:27:22.061Z,25.00
2022-08-17T07:29:53.911Z,28.23
2022-08-17T07:32:32.833Z,27.60
2022-08-17T07:35:17.352Z,25.45
2022-08-17T07:37:55.910Z,29.45
2022-08-17T07:40:44.678Z,27.90
2022-08-17T07:43:39.921Z,28.40
2022-08-17T07:46:46.180Z,26.10
2022-08-17T07:49:13.396Z,25.65
2022-08-17T07:51:45.809Z,27.83
2022-08-17T07:54:15.754Z,28.60
2022-08-17T07:56:54.657Z,29.40
2022-08-17T07:59:41.225Z,27.67
2022-08-17T08:02:33.835Z,27.88
2022-08-17T08:05:48.781Z,25.30
2022-08-17T08:08:34.711Z,27.48
2022-08-17T08:11:07.632Z,29.00
2022-08-17T08:13:35.412Z,29.20
2022-08-17T08:16:17.724Z,29.25
2022-08-17T08:18:56.810Z,28.08
2022-08-17T08:21:33.892Z,28.50
2022-08-17T08:24:51.635Z,31.35
2022-08-17T08:27:42.013Z,28.70
2022-08-17T08:30:10.710Z,30.35
2022-08-17T08:32:57.732Z,28.90
2022-08-17T08:36:04.239Z,28.80
2022-08-17T08:38:48.287Z,26.58
2022-08-17T08:41:49.430Z,24.48
2022-08-17T08:44:59.494Z,23.67
2022-08-17T08:47:41.964Z,23.60
2022-08-17T08:50:38.126Z,23.42
2022-08-17T08:53:11.984Z,23.08
2022-08-17T08:56:02.784Z,24.55
2022-08-17T08:58:56.666Z,23.17
2022-08-17T09:01:28.656Z,28.13
2022-08-17T09:04:24.153Z,23.98
2022-08-17T09:07:30.060Z,29.75
2022-08-17T09:10:15.224Z,22.02
2022-08-17T09:12:49.350Z,23.83
2022-08-17T09:15:29.770Z,23.33
2022-08-17T09:21:07.996Z,28.80
2022-08-17T09:23:46.594Z,26.90
2022-08-17T09:26:26.102Z,27.10
2022-08-17T09:28:56.364Z,20.40
2022-08-17T09:31:46.489Z,22.08
2022-08-17T09:35:05.205Z,25.50
2022-08-17T09:38:05.318Z,20.77
2022-08-17T09:40:35.229Z,25.85
2022-08-17T09:45:54.884Z,27.45
2022-08-17T09:48:32.163Z,24.98
2022-08-17T09:51:24.052Z,24.10
2022-08-17T09:53:51.748Z,23.67
2022-08-17T09:56:41.034Z,25.10
2022-08-17T09:59:56.199Z,23.75
2022-08-17T10:02:48.301Z,23.88
2022-08-17T10:05:22.555Z,25.38
2022-08-17T10:08:17.246Z,23.92
2022-08-17T10:10:59.365Z,22.90
2022-08-17T10:13:47.212Z,24.63
2022-08-17T10:16:23.042Z,22.90
2022-08-17T10:19:02.269Z,24.95
2022-08-17T10:21:50.418Z,25.55
2022-08-17T10:25:01.864Z,19.40
2022-08-17T10:28:00.806Z,22.50
2022-08-17T10:30:35.060Z,19.77
2022-08-17T10:33:07.385Z,18.90
2022-08-17T10:36:08.739Z,20.77
2022-08-17T10:38:46.256Z,19.60
2022-08-17T10:41:16.655Z,16.17
2022-08-17T10:44:40.272Z,21.05
2022-08-17T10:47:09.592Z,18.02
2022-08-17T10:49:38.481Z,20.67
2022-08-17T10:52:30.242Z,14.18
2022-08-17T10:55:06.457Z,16.67
2022-08-17T10:57:42.160Z,16.10
2022-08-17T11:00:41.249Z,18.00
2022-08-17T11:03:21.524Z,17.30
2022-08-17T11:05:54.347Z,17.45
2022-08-17T11:08:57.951Z,18.73
2022-08-17T11:11:58.941Z,18.13
2022-08-17T11:15:08.656Z,14.27
2022-08-17T11:18:18.075Z,17.42
2022-08-17T11:21:16.549Z,13.55
2022-08-17T11:23:48.736Z,16.65
2022-08-17T11:26:26.756Z,16.23
2022-08-17T11:29:00.230Z,13.95
2022-08-17T11:32:03.378Z,15.65
2022-08-17T11:34:31.296Z,16.60
2022-08-17T11:37:42.080Z,16.33
2022-08-17T11:40:26.739Z,16.70
2022-08-17T11:43:15.785Z,16.65
2022-08-17T11:46:25.016Z,14.37
2022-08-17T11:49:30.401Z,14.60
2022-08-17T11:52:01.205Z,14.27
2022-08-17T11:54:34.105Z,14.77
2022-08-17T11:57:27.796Z,13.40
2022-08-17T12:00:12.185Z,12.73
2022-08-17T12:02:48.070Z,13.25
2022-08-17T12:05:19.825Z,13.32
2022-08-17T12:07:48.457Z,13.02
2022-08-17T12:10:31.059Z,11.93
2022-08-17T12:12:58.993Z,11.73
2022-08-17T12:15:36.844Z,10.85
2022-08-17T12:18:04.099Z,12.73
2022-08-17T12:20:40.923Z,12.60
2022-08-17T12:23:14.101Z,12.07
2022-08-17T12:26:12.159Z,12.52
2022-08-17T12:28:39.768Z,11.30
2022-08-17T12:31:12.430Z,11.57
2022-08-17T12:33:43.721Z,12.82
2022-08-17T12:36:15.379Z,13.95
2022-08-17T12:38:50.179Z,11.73
2022-08-17T12:41:39.255Z,12.73
2022-08-17T12:44:12.125Z,13.68
2022-08-17T12:47:11.353Z,14.57
2022-08-17T12:49:41.005Z,15.93
2022-08-17T12:52:28.649Z,13.25
2022-08-17T12:54:56.824Z,13.55
2022-08-17T12:57:32.885Z,13.70
2022-08-17T13:00:21.588Z,12.68
2022-08-17T13:02:49.866Z,13.23
2022-08-17T13:05:39.745Z,12.40
2022-08-17T13:10:45.467Z,11.20
2022-08-17T13:13:26.572Z,12.75
2022-08-17T13:15:59.672Z,9.52
2022-08-17T13:18:40.221Z,10.50
2022-08-17T13:21:12.907Z,9.70
2022-08-17T13:23:40.148Z,11.82
2022-08-17T13:26:18.157Z,10.85
2022-08-17T13:28:49.777Z,10.50
2022-08-17T13:31:32.860Z,11.57
2022-08-17T13:34:26.632Z,9.73
2022-08-17T13:37:18.446Z,13.60
2022-08-17T13:39:48.439Z,10.55
2022-08-17T13:42:50.390Z,11.43
2022-08-17T13:45:38.891Z,12.80
2022-08-17T13:48:13.670Z,13.43
2022-08-17T13:50:56.419Z,12.77
2022-08-17T13:53:35.847Z,12.05
2022-08-17T13:56:37.542Z,12.43
2022-08-17T13:59:36.035Z,10.73
2022-08-17T14:02:09.962Z,13.27
2022-08-17T14:04:38.718Z,11.03
2022-08-17T14:07:12.646Z,11.20
2022-08-17T14:09:41.219Z,10.45
2022-08-17T14:12:13.370Z,12.48
2022-08-17T14:14:43.230Z,9.18
2022-08-17T14:19:37.534Z,6.80
2022-08-17T14:22:05.325Z,6.43
2022-08-17T14:24:35.243Z,7.82
2022-08-17T14:29:31.615Z,6.78
2022-08-17T14:31:59.063Z,6.50
2022-08-17T14:34:26.637Z,6.07
2022-08-17T14:36:54.050Z,6.20
2022-08-17T14:39:34.360Z,6.20
2022-08-17T14:42:01.910Z,5.72
2022-08-17T14:44:29.248Z,5.30
2022-08-17T14:46:56.490Z,5.28
2022-08-17T14:49:24.585Z,5.07
2022-08-17T14:51:51.840Z,5.15
2022-08-17T14:54:33.147Z,4.57
2022-08-17T14:57:09.404Z,5.22
2022-08-17T14:59:55.253Z,5.82
2022-08-17T15:02:29.663Z,5.15
2022-08-17T15:05:04.687Z,5.55
2022-08-17T15:07:32.415Z,5.20
2022-08-17T15:10:02.532Z,5.20
2022-08-17T15:12:33.371Z,4.55
2022-08-17T15:15:04.821Z,4.68
2022-08-17T15:17:45.043Z,4.90
2022-08-17T15:20:19.522Z,5.60
2022-08-17T15:22:49.502Z,7.35
2022-08-17T15:25:17.273Z,9.35
2022-08-17T15:27:44.490Z,6.57
2022-08-17T15:30:12.140Z,6.75
2022-08-17T15:32:40.667Z,6.28
2022-08-17T15:35:09.028Z,5.57
2022-08-17T15:37:36.543Z,7.93
2022-08-17T15:40:04.493Z,8.70
2022-08-17T15:42:31.816Z,8.02
2022-08-17T15:45:00.059Z,8.52
2022-08-17T15:47:27.412Z,7.40
2022-08-17T15:50:00.113Z,9.65
2022-08-17T15:52:28.514Z,10.32
2022-08-17T15:54:57.698Z,6.78
2022-08-17T15:57:26.035Z,6.28
2022-08-17T15:59:58.862Z,8.15
2022-08-17T16:03:15.146Z,5.78
2022-08-17T16:05:22.295Z,5.43
2022-08-17T16:07:52.719Z,5.38
2022-08-17T16:10:21.120Z,5.30
2022-08-17T16:12:49.363Z,4.30
2022-08-17T16:15:18.573Z,3.78
2022-08-17T16:17:45.966Z,3.95
2022-08-17T16:20:19.736Z,3.50
2022-08-17T16:22:48.678Z,4.30
2022-08-17T16:25:18.856Z,5.15
2022-08-17T16:27:46.761Z,3.60
2022-08-17T16:30:17.640Z,3.47
2022-08-17T16:32:45.582Z,3.28
2022-08-17T16:35:16.404Z,4.00
2022-08-17T16:37:45.507Z,3.78
2022-08-17T16:40:13.598Z,3.45
2022-08-17T16:42:41.083Z,4.00
2022-08-17T16:45:13.350Z,4.80
2022-08-17T16:48:12.820Z,4.13
2022-08-17T16:50:40.404Z,4.15
2022-08-17T16:53:11.061Z,4.43
2022-08-17T16:55:38.687Z,4.28
2022-08-17T16:58:06.853Z,4.00
2022-08-17T17:00:44.669Z,3.90
2022-08-17T17:03:19.638Z,4.57
2022-08-17T17:06:18.750Z,3.95
2022-08-17T17:09:06.662Z,4.63
2022-08-17T17:11:43.325Z,5.07
2022-08-17T17:14:16.944Z,4.93
2022-08-17T17:17:24.826Z,4.97
2022-08-17T17:19:59.409Z,4.70
2022-08-17T17:23:03.307Z,5.78
2022-08-17T17:25:39.791Z,5.85
2022-08-17T17:28:19.132Z,5.70
2022-08-17T17:30:58.356Z,5.47
2022-08-17T17:33:53.780Z,5.70
2022-08-17T17:36:48.568Z,5.60
2022-08-17T17:39:34.119Z,6.20
2022-08-17T17:42:07.878Z,6.22
2022-08-17T17:44:39.448Z,5.93
2022-08-17T17:47:06.845Z,7.07
2022-08-17T17:49:36.110Z,5.82
2022-08-17T17:52:18.888Z,5.88
2022-08-17T17:55:23.532Z,6.00
2022-08-17T17:58:14.674Z,6.18
2022-08-17T18:00:46.860Z,6.10
2022-08-17T18:03:26.537Z,6.82
2022-08-17T18:05:56.554Z,5.85
2022-08-17T18:08:59.787Z,6.68
2022-08-17T18:12:03.790Z,6.25
2022-08-17T18:14:58.267Z,6.88
2022-08-17T18:17:29.732Z,5.57
2022-08-17T18:19:56.893Z,6.68
2022-08-17T18:22:24.575Z,6.70
2022-08-17T18:24:56.122Z,6.32
2022-08-17T18:27:33.867Z,7.30
2022-08-17T18:30:11.289Z,6.22
2022-08-17T18:32:41.100Z,7.57
2022-08-17T18:35:09.150Z,6.50
2022-08-17T18:37:38.420Z,7.00
2022-08-17T18:40:20.325Z,7.05
2022-08-17T18:42:50.188Z,7.93
2022-08-17T18:45:33.388Z,7.38
2022-08-17T18:48:00.607Z,7.88
2022-08-17T18:50:39.942Z,7.55
2022-08-17T18:53:33.158Z,7.30
2022-08-17T18:56:30.628Z,7.60
2022-08-17T18:59:28.915Z,8.10
2022-08-17T19:02:10.240Z,7.97
2022-08-17T19:04:59.665Z,8.35
2022-08-17T19:07:28.800Z,7.82
2022-08-17T19:10:19.602Z,8.57
2022-08-17T19:12:48.688Z,7.95
2022-08-17T19:15:17.946Z,6.70
2022-08-17T19:17:50.640Z,7.22
2022-08-17T19:20:20.237Z,7.03
2022-08-17T19:23:19.138Z,6.70
2022-08-17T19:25:52.718Z,6.45
2022-08-17T19:28:29.329Z,6.68
2022-08-17T19:31:04.798Z,6.93
2022-08-17T19:33:32.296Z,6.38
2022-08-17T19:36:43.781Z,6.57
2022-08-17T19:39:38.569Z,6.70
2022-08-17T19:42:23.994Z,5.80
2022-08-17T19:45:07.980Z,5.90
2022-08-17T19:47:55.063Z,5.88
2022-08-17T19:50:41.335Z,5.60
2022-08-17T19:53:18.664Z,6.10
2022-08-17T19:56:07.059Z,6.13
2022-08-17T19:59:25.429Z,6.55
2022-08-17T20:02:33.934Z,6.10
2022-08-17T20:05:05.079Z,5.47
2022-08-17T20:07:46.185Z,5.80
2022-08-17T20:10:32.525Z,5.75
2022-08-17T20:13:04.410Z,5.28
2022-08-17T20:15:33.508Z,5.95
2022-08-17T20:18:01.631Z,6.20
2022-08-17T20:20:47.057Z,5.80
2022-08-17T20:23:20.405Z,6.28
2022-08-17T20:25:47.714Z,6.88
2022-08-17T20:28:24.914Z,7.25
2022-08-17T20:30:52.923Z,6.97
2022-08-17T20:33:36.377Z,6.78
2022-08-17T20:36:13.078Z,7.00
2022-08-17T20:38:44.528Z,6.90
2022-08-17T20:41:15.142Z,6.97
2022-08-17T20:43:49.058Z,6.43
2022-08-17T20:46:40.676Z,6.95
2022-08-17T20:49:35.885Z,7.40
2022-08-17T20:52:34.269Z,7.25
2022-08-17T20:55:02.955Z,7.78
2022-08-17T20:57:33.186Z,7.68
2022-08-17T21:00:28.680Z,8.48
2022-08-17T21:03:23.979Z,7.80
2022-08-17T21:06:03.068Z,7.70
2022-08-17T21:08:59.034Z,7.88
2022-08-17T21:12:02.670Z,8.13
2022-08-17T21:14:42.028Z,8.55
2022-08-17T21:17:29.746Z,8.00
2022-08-17T21:20:10.766Z,7.75
2022-08-17T21:23:00.907Z,8.25
2022-08-17T21:25:41.919Z,8.03
2022-08-17T21:29:00.338Z,8.23
2022-08-17T21:31:30.189Z,7.10
2022-08-17T21:34:17.163Z,7.47
2022-08-17T21:36:44.681Z,7.43
2022-08-17T21:39:16.403Z,7.70
2022-08-17T21:41:53.071Z,7.60
2022-08-17T21:44:30.573Z,6.95
2022-08-17T21:47:30.007Z,7.28
2022-08-17T21:50:13.665Z,7.53
2022-08-17T21:52:41.262Z,7.28
2022-08-17T21:55:09.365Z,7.15
2022-08-17T21:57:37.222Z,6.60
2022-08-17T22:00:06.537Z,6.60
2022-08-17T22:02:37.584Z,7.05
2022-08-17T22:05:12.834Z,7.70
2022-08-17T22:07:48.703Z,7.40
2022-08-17T22:10:28.237Z,7.15
2022-08-17T22:13:22.745Z,7.45
2022-08-17T22:16:15.677Z,7.63
2022-08-17T22:18:56.765Z,8.40
2022-08-17T22:21:25.255Z,7.45
2022-08-17T22:24:06.104Z,7.65
2022-08-17T22:27:07.170Z,7.32
2022-08-17T22:29:43.509Z,9.18
2022-08-17T22:32:10.935Z,8.20
2022-08-17T22:34:39.083Z,7.50
2022-08-17T22:37:27.684Z,8.15
2022-08-17T22:39:58.865Z,8.05
2022-08-17T22:42:28.791Z,8.20
2022-08-17T22:44:56.322Z,8.05
2022-08-17T22:47:30.890Z,8.52
2022-08-17T22:50:02.211Z,8.55
2022-08-17T22:52:34.316Z,7.75
2022-08-17T22:55:40.246Z,7.88
2022-08-17T22:58:34.230Z,8.20
2022-08-17T23:01:30.463Z,7.60
2022-08-17T23:03:58.639Z,8.02
2022-08-17T23:06:26.399Z,7.88
2022-08-17T23:08:58.228Z,7.47
2022-08-17T23:11:42.952Z,7.57
2022-08-17T23:14:15.807Z,8.00
2022-08-17T23:16:43.289Z,8.25
2022-08-17T23:19:11.134Z,6.90
2022-08-17T23:21:38.168Z,7.03
2022-08-17T23:24:09.148Z,7.45
2022-08-17T23:26:38.166Z,7.18
2022-08-17T23:29:06.782Z,7.18
2022-08-17T23:31:37.294Z,6.63
2022-08-17T23:34:05.067Z,6.63
2022-08-17T23:36:34.881Z,6.20
2022-08-17T23:39:02.121Z,6.18
2022-08-17T23:41:31.912Z,6.85
2022-08-17T23:43:59.188Z,6.45
2022-08-17T23:46:26.916Z,5.95
2022-08-17T23:48:56.902Z,5.75
2022-08-17T23:51:28.214Z,5.80
2022-08-17T23:53:58.218Z,6.45
2022-08-17T23:56:28.278Z,5.60
2022-08-17T23:58:58.958Z,5.35
